createdAt,value
2018-02-12T00:00:15.898Z,1.82
2018-02-12T00:01:15.952Z,1.86
2018-02-12T00:02:16.007Z,1.88
2018-02-12T00:03:16.059Z,1.86
2018-02-12T00:04:16.114Z,2.04
2018-02-12T00:05:16.169Z,2.12
2018-02-12T00:06:16.222Z,1.89
2018-02-12T00:07:16.276Z,1.81
2018-02-12T00:08:16.330Z,1.83
2018-02-12T00:09:16.384Z,1.85
2018-02-12T00:10:16.438Z,1.79
2018-02-12T00:11:16.491Z,1.81
2018-02-12T00:12:16.545Z,1.86
2018-02-12T00:13:16.599Z,1.93
2018-02-12T00:14:16.653Z,1.89
2018-02-12T00:15:16.705Z,2.00
2018-02-12T00:16:16.762Z,2.01
2018-02-12T00:17:16.814Z,2.04
2018-02-12T00:18:16.868Z,2.05
2018-02-12T00:19:16.922Z,2.00
2018-02-12T00:20:16.975Z,2.05
2018-02-12T00:21:17.028Z,1.98
2018-02-12T00:22:17.083Z,1.98
2018-02-12T00:23:17.136Z,1.92
2018-02-12T00:24:17.198Z,1.92
2018-02-12T00:25:17.244Z,1.93
2018-02-12T00:26:17.297Z,1.88
2018-02-12T00:27:17.361Z,1.83
2018-02-12T00:28:17.404Z,1.71
2018-02-12T00:29:17.460Z,1.81
2018-02-12T00:30:17.512Z,1.88
2018-02-12T00:31:17.735Z,1.83
2018-02-12T00:32:17.618Z,1.81
2018-02-12T00:33:17.674Z,1.77
2018-02-12T00:34:17.729Z,1.95
2018-02-12T00:35:17.780Z,2.09
2018-02-12T00:36:17.833Z,2.19
2018-02-12T00:37:17.888Z,2.09
2018-02-12T00:38:17.941Z,2.11
2018-02-12T00:39:17.994Z,2.20
2018-02-12T00:40:18.048Z,2.19
2018-02-12T00:41:18.103Z,2.12
2018-02-12T00:42:18.157Z,1.82
2018-02-12T00:43:18.210Z,1.74
2018-02-12T00:44:18.266Z,1.67
2018-02-12T00:45:18.319Z,1.85
2018-02-12T00:46:18.373Z,1.85
2018-02-12T00:47:18.425Z,1.90
2018-02-12T00:48:18.478Z,2.00
2018-02-12T00:49:18.540Z,2.04
2018-02-12T00:50:18.587Z,2.04
2018-02-12T00:51:18.639Z,2.09
2018-02-12T00:52:18.694Z,2.14
2018-02-12T00:53:18.748Z,2.29
2018-02-12T00:54:18.803Z,2.25
2018-02-12T00:55:18.854Z,2.27
2018-02-12T00:56:18.908Z,2.27
2018-02-12T00:57:18.962Z,2.15
2018-02-12T00:58:19.015Z,2.09
2018-02-12T00:59:19.070Z,2.11
2018-02-12T01:00:19.173Z,2.08
2018-02-12T01:01:19.177Z,2.14
2018-02-12T01:02:19.232Z,2.25
2018-02-12T01:03:19.284Z,2.19
2018-02-12T01:04:19.340Z,2.19
2018-02-12T01:05:19.392Z,2.27
2018-02-12T01:06:19.447Z,2.45
2018-02-12T01:07:19.500Z,2.44
2018-02-12T01:08:19.554Z,2.48
2018-02-12T01:09:19.610Z,2.45
2018-02-12T01:10:19.661Z,2.38
2018-02-12T01:11:19.714Z,2.36
2018-02-12T01:12:19.768Z,2.36
2018-02-12T01:13:19.822Z,2.02
2018-02-12T01:14:19.878Z,2.07
2018-02-12T01:15:19.930Z,2.23
2018-02-12T01:16:19.984Z,2.19
2018-02-12T01:17:20.038Z,2.12
2018-02-12T01:18:20.093Z,2.30
2018-02-12T01:19:20.145Z,2.27
2018-02-12T01:20:20.201Z,2.26
2018-02-12T01:21:20.254Z,2.22
2018-02-12T01:22:20.309Z,2.26
2018-02-12T01:23:20.360Z,2.27
2018-02-12T01:24:20.418Z,2.37
2018-02-12T01:25:20.468Z,2.40
2018-02-12T01:26:20.523Z,2.36
2018-02-12T01:27:20.576Z,2.25
2018-02-12T01:28:20.630Z,2.15
2018-02-12T01:29:20.685Z,2.23
2018-02-12T01:30:20.737Z,2.27
2018-02-12T01:31:20.792Z,2.30
2018-02-12T01:32:20.846Z,2.32
2018-02-12T01:33:20.899Z,2.50
2018-02-12T01:34:20.953Z,2.47
2018-02-12T01:35:21.007Z,2.44
2018-02-12T01:36:21.067Z,2.40
2018-02-12T01:37:21.115Z,2.45
2018-02-12T01:38:21.170Z,2.29
2018-02-12T01:39:21.222Z,2.20
2018-02-12T01:40:21.277Z,2.14
2018-02-12T01:41:21.331Z,2.14
2018-02-12T01:42:21.383Z,2.38
2018-02-12T01:43:21.437Z,2.37
2018-02-12T01:44:21.490Z,2.33
2018-02-12T01:45:21.545Z,2.30
2018-02-12T01:46:21.902Z,2.19
2018-02-12T01:47:21.654Z,2.14
2018-02-12T01:48:21.708Z,2.37
2018-02-12T01:49:21.762Z,2.18
2018-02-12T01:50:21.815Z,2.19
2018-02-12T01:51:21.868Z,2.15
2018-02-12T01:52:21.923Z,2.14
2018-02-12T01:53:21.986Z,2.23
2018-02-12T01:54:22.030Z,2.14
2018-02-12T01:55:22.084Z,2.27
2018-02-12T01:56:22.138Z,2.29
2018-02-12T01:57:22.191Z,2.18
2018-02-12T01:58:22.245Z,2.12
2018-02-12T01:59:22.299Z,2.15
2018-02-12T02:00:22.352Z,2.12
2018-02-12T02:01:22.406Z,2.20
2018-02-12T02:02:22.463Z,2.11
2018-02-12T02:03:22.515Z,2.08
2018-02-12T02:04:22.568Z,2.08
2018-02-12T02:05:22.622Z,2.07
2018-02-12T02:06:22.677Z,2.11
2018-02-12T02:07:22.729Z,2.27
2018-02-12T02:08:22.782Z,2.29
2018-02-12T02:09:22.846Z,2.33
2018-02-12T02:10:22.890Z,2.29
2018-02-12T02:11:22.944Z,2.27
2018-02-12T02:12:22.999Z,2.20
2018-02-12T02:13:23.051Z,2.11
2018-02-12T02:14:23.356Z,1.95
2018-02-12T02:15:23.158Z,2.09
2018-02-12T02:16:23.216Z,2.11
2018-02-12T02:17:23.268Z,2.12
2018-02-12T02:18:23.322Z,2.12
2018-02-12T02:19:23.375Z,2.23
2018-02-12T02:20:23.429Z,2.18
2018-02-12T02:21:23.482Z,2.14
2018-02-12T02:22:23.537Z,2.19
2018-02-12T02:23:23.589Z,2.18
2018-02-12T02:24:23.644Z,2.27
2018-02-12T02:25:23.697Z,2.22
2018-02-12T02:26:23.752Z,2.32
2018-02-12T02:27:23.804Z,2.20
2018-02-12T02:28:23.860Z,2.18
2018-02-12T02:29:23.913Z,2.20
2018-02-12T02:30:23.968Z,2.18
2018-02-12T02:31:24.021Z,2.33
2018-02-12T02:32:24.075Z,2.27
2018-02-12T02:33:24.136Z,2.30
2018-02-12T02:34:24.183Z,2.40
2018-02-12T02:35:24.236Z,2.32
2018-02-12T02:36:24.289Z,2.29
2018-02-12T02:37:24.344Z,2.20
2018-02-12T02:38:24.399Z,2.25
2018-02-12T02:39:24.452Z,2.38
2018-02-12T02:40:24.506Z,2.44
2018-02-12T02:41:24.557Z,2.50
2018-02-12T02:42:24.613Z,2.45
2018-02-12T02:43:24.917Z,2.47
2018-02-12T02:44:24.719Z,2.36
2018-02-12T02:45:24.775Z,2.38
2018-02-12T02:46:24.828Z,2.36
2018-02-12T02:47:24.881Z,2.37
2018-02-12T02:48:24.986Z,2.43
2018-02-12T02:49:24.990Z,2.43
2018-02-12T02:50:25.045Z,2.44
2018-02-12T02:51:25.098Z,2.40
2018-02-12T02:52:25.154Z,2.32
2018-02-12T02:53:25.206Z,2.27
2018-02-12T02:54:25.259Z,2.20
2018-02-12T02:55:25.313Z,2.25
2018-02-12T02:56:25.365Z,2.23
2018-02-12T02:57:25.420Z,2.11
2018-02-12T02:58:25.476Z,2.07
2018-02-12T02:59:25.526Z,2.12
2018-02-12T03:00:25.580Z,2.12
2018-02-12T03:01:25.636Z,2.20
2018-02-12T03:02:25.688Z,2.08
2018-02-12T03:03:25.743Z,2.08
2018-02-12T03:04:25.795Z,2.00
2018-02-12T03:05:26.101Z,1.88
2018-02-12T03:06:25.904Z,1.93
2018-02-12T03:07:25.959Z,1.95
2018-02-12T03:08:26.012Z,1.83
2018-02-12T03:09:26.065Z,1.83
2018-02-12T03:10:26.120Z,1.93
2018-02-12T03:11:26.473Z,1.85
2018-02-12T03:12:26.226Z,1.95
2018-02-12T03:13:26.280Z,1.92
2018-02-12T03:14:26.334Z,1.92
2018-02-12T03:15:26.387Z,1.81
2018-02-12T03:16:26.444Z,1.81
2018-02-12T03:17:26.501Z,2.04
2018-02-12T03:18:26.551Z,1.86
2018-02-12T03:19:26.603Z,2.02
2018-02-12T03:20:26.656Z,2.05
2018-02-12T03:21:26.712Z,2.05
2018-02-12T03:22:26.765Z,1.89
2018-02-12T03:23:26.869Z,1.71
2018-02-12T03:24:26.872Z,1.75
2018-02-12T03:25:26.926Z,1.74
2018-02-12T03:26:26.980Z,1.82
2018-02-12T03:27:27.032Z,1.77
2018-02-12T03:28:27.088Z,1.86
2018-02-12T03:29:27.141Z,1.93
2018-02-12T03:30:27.195Z,2.01
2018-02-12T03:31:27.248Z,1.90
2018-02-12T03:32:27.302Z,1.75
2018-02-12T03:33:27.356Z,1.79
2018-02-12T03:34:27.410Z,1.86
2018-02-12T03:35:27.462Z,1.89
2018-02-12T03:36:27.516Z,1.86
2018-02-12T03:37:27.571Z,1.67
2018-02-12T03:38:27.624Z,1.67
2018-02-12T03:39:27.678Z,1.64
2018-02-12T03:40:27.731Z,1.63
2018-02-12T03:41:27.784Z,1.54
2018-02-12T03:42:27.838Z,1.54
2018-02-12T03:43:27.892Z,1.63
2018-02-12T03:44:27.944Z,1.63
2018-02-12T03:45:27.999Z,1.72
2018-02-12T03:46:28.302Z,1.68
2018-02-12T03:47:28.104Z,1.70
2018-02-12T03:48:28.158Z,1.95
2018-02-12T03:49:28.213Z,1.92
2018-02-12T03:50:28.267Z,1.89
2018-02-12T03:51:28.322Z,1.92
2018-02-12T03:52:28.371Z,1.86
2018-02-12T03:53:28.427Z,1.86
2018-02-12T03:54:28.479Z,1.88
2018-02-12T03:55:28.542Z,1.90
2018-02-12T03:56:28.585Z,2.00
2018-02-12T03:57:28.657Z,1.93
2018-02-12T03:58:28.693Z,1.92
2018-02-12T03:59:28.745Z,2.02
2018-02-12T04:00:28.799Z,2.00
2018-02-12T04:01:28.854Z,2.08
2018-02-12T04:02:28.908Z,2.02
2018-02-12T04:03:28.962Z,2.05
2018-02-12T04:04:29.014Z,2.02
2018-02-12T04:05:29.067Z,2.09
2018-02-12T04:06:29.122Z,2.12
2018-02-12T04:07:29.173Z,2.18
2018-02-12T04:08:29.227Z,2.15
2018-02-12T04:09:29.281Z,2.19
2018-02-12T04:10:29.336Z,2.19
2018-02-12T04:11:29.388Z,2.08
2018-02-12T04:12:29.442Z,2.04
2018-02-12T04:13:29.496Z,2.07
2018-02-12T04:14:29.550Z,2.20
2018-02-12T04:15:29.603Z,2.15
2018-02-12T04:16:29.658Z,2.05
2018-02-12T04:17:29.711Z,2.12
2018-02-12T04:18:29.764Z,2.08
2018-02-12T04:19:29.817Z,2.14
2018-02-12T04:20:29.870Z,2.09
2018-02-12T04:21:29.924Z,2.04
2018-02-12T04:22:29.977Z,1.86
2018-02-12T04:23:30.031Z,2.00
2018-02-12T04:24:30.084Z,1.89
2018-02-12T04:25:30.138Z,1.82
2018-02-12T04:26:30.193Z,1.81
2018-02-12T04:27:30.244Z,1.75
2018-02-12T04:28:30.300Z,1.81
2018-02-12T04:29:30.353Z,1.79
2018-02-12T04:30:30.406Z,1.85
2018-02-12T04:31:30.460Z,1.88
2018-02-12T04:32:30.514Z,1.90
2018-02-12T04:33:30.566Z,1.83
2018-02-12T04:34:30.621Z,2.01
2018-02-12T04:35:30.674Z,1.98
2018-02-12T04:36:30.726Z,1.83
2018-02-12T04:37:30.781Z,1.86
2018-02-12T04:38:30.835Z,1.83
2018-02-12T04:39:30.888Z,1.86
2018-02-12T04:40:30.940Z,1.85
2018-02-12T04:41:30.994Z,1.85
2018-02-12T04:42:31.051Z,1.90
2018-02-12T04:43:31.100Z,1.85
2018-02-12T04:44:31.154Z,1.83
2018-02-12T04:45:31.208Z,1.79
2018-02-12T04:46:31.262Z,1.64
2018-02-12T04:47:31.316Z,1.64
2018-02-12T04:48:31.372Z,1.67
2018-02-12T04:49:31.423Z,1.75
2018-02-12T04:50:31.474Z,1.72
2018-02-12T04:51:31.527Z,1.67
2018-02-12T04:52:31.581Z,1.64
2018-02-12T04:53:31.635Z,1.63
2018-02-12T04:54:31.689Z,1.61
2018-02-12T04:55:31.742Z,1.63
2018-02-12T04:56:31.795Z,1.60
2018-02-12T04:57:31.850Z,1.53
2018-02-12T04:58:31.902Z,1.54
2018-02-12T04:59:31.955Z,1.53
2018-02-12T05:00:32.044Z,1.54
2018-02-12T05:01:32.062Z,1.49
2018-02-12T05:02:32.116Z,1.52
2018-02-12T05:03:32.169Z,1.63
2018-02-12T05:04:32.224Z,1.67
2018-02-12T05:05:32.276Z,1.71
2018-02-12T05:06:32.331Z,1.54
2018-02-12T05:07:32.383Z,1.61
2018-02-12T05:08:32.437Z,1.56
2018-02-12T05:09:32.489Z,1.70
2018-02-12T05:10:32.545Z,1.67
2018-02-12T05:11:32.596Z,1.56
2018-02-12T05:12:32.651Z,1.61
2018-02-12T05:13:32.704Z,1.50
2018-02-12T05:14:32.757Z,1.29
2018-02-12T05:15:32.812Z,1.29
2018-02-12T05:16:32.863Z,1.29
2018-02-12T05:17:32.918Z,1.34
2018-02-12T05:18:32.970Z,1.29
2018-02-12T05:19:33.023Z,1.24
2018-02-12T05:20:33.078Z,1.28
2018-02-12T05:21:33.130Z,1.32
2018-02-12T05:22:33.185Z,1.44
2018-02-12T05:23:33.240Z,1.31
2018-02-12T05:24:33.290Z,1.29
2018-02-12T05:25:33.343Z,1.26
2018-02-12T05:26:33.397Z,1.43
2018-02-12T05:27:33.449Z,1.56
2018-02-12T05:28:33.503Z,1.52
2018-02-12T05:29:33.558Z,1.56
2018-02-12T05:30:33.610Z,1.46
2018-02-12T05:31:33.665Z,1.56
2018-02-12T05:32:33.754Z,1.50
2018-02-12T05:33:33.770Z,1.53
2018-02-12T05:34:33.825Z,1.44
2018-02-12T05:35:33.876Z,1.53
2018-02-12T05:36:33.929Z,1.52
2018-02-12T05:37:33.982Z,1.29
2018-02-12T05:38:34.037Z,1.31
2018-02-12T05:39:34.240Z,1.39
2018-02-12T05:40:34.143Z,1.32
2018-02-12T05:41:34.196Z,1.44
2018-02-12T05:42:34.250Z,1.46
2018-02-12T05:43:34.303Z,1.39
2018-02-12T05:44:34.356Z,1.43
2018-02-12T05:45:34.410Z,1.32
2018-02-12T05:46:34.464Z,1.31
2018-02-12T05:47:34.521Z,1.31
2018-02-12T05:48:34.569Z,1.38
2018-02-12T05:49:34.624Z,1.54
2018-02-12T05:50:34.681Z,1.50
2018-02-12T05:51:34.729Z,1.53
2018-02-12T05:52:34.783Z,1.49
2018-02-12T05:53:34.836Z,1.56
2018-02-12T05:54:34.889Z,1.47
2018-02-12T05:55:34.941Z,1.49
2018-02-12T05:56:34.996Z,1.49
2018-02-12T05:57:35.049Z,1.46
2018-02-12T05:58:35.102Z,1.35
2018-02-12T05:59:35.155Z,1.31
2018-02-12T06:00:35.207Z,1.39
2018-02-12T06:01:35.412Z,1.29
2018-02-12T06:02:35.316Z,1.29
2018-02-12T06:03:35.368Z,1.31
2018-02-12T06:04:35.423Z,1.26
2018-02-12T06:05:35.474Z,1.32
2018-02-12T06:06:35.529Z,1.29
2018-02-12T06:07:35.583Z,1.32
2018-02-12T06:08:35.635Z,1.50
2018-02-12T06:09:35.688Z,1.44
2018-02-12T06:10:35.741Z,1.46
2018-02-12T06:11:35.794Z,1.32
2018-02-12T06:12:35.848Z,1.29
2018-02-12T06:13:36.212Z,1.31
2018-02-12T06:14:35.955Z,1.24
2018-02-12T06:15:36.008Z,1.31
2018-02-12T06:16:36.063Z,1.47
2018-02-12T06:17:36.366Z,1.56
2018-02-12T06:18:36.167Z,1.49
2018-02-12T06:19:36.220Z,1.53
2018-02-12T06:20:36.275Z,1.56
2018-02-12T06:21:36.327Z,1.57
2018-02-12T06:22:36.380Z,1.64
2018-02-12T06:23:36.434Z,1.71
2018-02-12T06:24:36.503Z,1.70
2018-02-12T06:25:36.565Z,1.68
2018-02-12T06:26:36.612Z,1.57
2018-02-12T06:27:36.646Z,1.60
2018-02-12T06:28:36.709Z,1.52
2018-02-12T06:29:36.772Z,1.50
2018-02-12T06:30:36.806Z,1.56
2018-02-12T06:31:36.872Z,1.56
2018-02-12T06:32:36.913Z,1.53
2018-02-12T06:33:36.966Z,1.29
2018-02-12T06:34:37.275Z,1.38
2018-02-12T06:35:37.075Z,1.43
2018-02-12T06:36:37.133Z,1.39
2018-02-12T06:37:37.183Z,1.44
2018-02-12T06:38:37.234Z,1.50
2018-02-12T06:39:37.286Z,1.50
2018-02-12T06:40:37.340Z,1.54
2018-02-12T06:41:37.393Z,1.42
2018-02-12T06:42:37.448Z,1.29
2018-02-12T06:43:37.499Z,1.29
2018-02-12T06:44:37.554Z,1.31
2018-02-12T06:45:37.606Z,1.36
2018-02-12T06:46:37.692Z,1.26
2018-02-12T06:47:37.713Z,1.34
2018-02-12T06:48:37.765Z,1.32
2018-02-12T06:49:37.820Z,1.28
2018-02-12T06:50:37.873Z,1.17
2018-02-12T06:51:37.927Z,1.10
2018-02-12T06:52:37.978Z,1.17
2018-02-12T06:53:38.033Z,1.16
2018-02-12T06:54:38.089Z,1.21
2018-02-12T06:55:38.140Z,1.17
2018-02-12T06:56:38.193Z,1.17
2018-02-12T06:57:38.246Z,1.21
2018-02-12T06:58:38.299Z,1.26
2018-02-12T06:59:38.351Z,1.25
2018-02-12T07:00:38.404Z,1.28
2018-02-12T07:01:38.459Z,1.28
2018-02-12T07:02:38.512Z,1.32
2018-02-12T07:03:38.563Z,1.47
2018-02-12T07:04:38.622Z,1.28
2018-02-12T07:05:39.395Z,1.39
2018-02-12T07:06:38.725Z,1.36
2018-02-12T07:07:38.778Z,1.38
2018-02-12T07:08:38.832Z,1.34
2018-02-12T07:09:38.884Z,1.32
2018-02-12T07:10:38.938Z,1.31
2018-02-12T07:11:38.991Z,1.26
2018-02-12T07:12:39.045Z,1.28
2018-02-12T07:13:39.098Z,1.31
2018-02-12T07:14:39.157Z,1.31
2018-02-12T07:15:39.204Z,1.39
2018-02-12T07:16:39.257Z,1.39
2018-02-12T07:17:39.310Z,1.52
2018-02-12T07:18:39.366Z,1.52
2018-02-12T07:19:39.420Z,1.53
2018-02-12T07:20:39.470Z,1.53
2018-02-12T07:21:39.527Z,1.53
2018-02-12T07:22:39.578Z,1.53
2018-02-12T07:23:39.631Z,1.53
2018-02-12T07:24:39.687Z,1.56
2018-02-12T07:25:39.739Z,1.50
2018-02-12T07:26:40.043Z,1.54
2018-02-12T07:27:39.844Z,1.46
2018-02-12T07:28:39.898Z,1.57
2018-02-12T07:29:39.951Z,1.50
2018-02-12T07:30:40.009Z,1.54
2018-02-12T07:31:40.057Z,1.56
2018-02-12T07:32:40.111Z,1.57
2018-02-12T07:33:40.165Z,1.64
2018-02-12T07:34:40.219Z,1.56
2018-02-12T07:35:40.272Z,1.63
2018-02-12T07:36:40.326Z,1.56
2018-02-12T07:37:40.379Z,1.67
2018-02-12T07:38:40.432Z,1.57
2018-02-12T07:39:40.485Z,1.63
2018-02-12T07:40:40.539Z,1.67
2018-02-12T07:41:40.592Z,1.64
2018-02-12T07:42:40.648Z,1.63
2018-02-12T07:43:40.699Z,1.65
2018-02-12T07:44:40.754Z,1.56
2018-02-12T07:45:40.807Z,1.53
2018-02-12T07:46:40.861Z,1.60
2018-02-12T07:47:40.913Z,1.57
2018-02-12T07:48:40.968Z,1.67
2018-02-12T07:49:41.022Z,1.61
2018-02-12T07:50:41.074Z,1.61
2018-02-12T07:51:41.127Z,1.64
2018-02-12T07:52:41.182Z,1.68
2018-02-12T07:53:41.235Z,1.74
2018-02-12T07:54:41.289Z,1.67
2018-02-12T07:55:41.342Z,1.79
2018-02-12T07:56:41.396Z,1.67
2018-02-12T07:57:41.451Z,1.60
2018-02-12T07:58:41.503Z,1.57
2018-02-12T07:59:41.557Z,1.57
2018-02-12T08:00:41.611Z,1.65
2018-02-12T08:01:41.666Z,1.70
2018-02-12T08:02:41.719Z,1.77
2018-02-12T08:03:41.771Z,1.82
2018-02-12T08:04:41.828Z,1.83
2018-02-12T08:05:41.879Z,1.90
2018-02-12T08:06:41.935Z,1.92
2018-02-12T08:07:41.987Z,2.08
2018-02-12T08:08:42.041Z,2.04
2018-02-12T08:09:42.098Z,1.92
2018-02-12T08:10:42.149Z,1.86
2018-02-12T08:11:42.203Z,1.64
2018-02-12T08:12:42.256Z,1.60
2018-02-12T08:13:42.793Z,1.68
2018-02-12T08:14:42.364Z,1.81
2018-02-12T08:15:42.964Z,1.88
2018-02-12T08:16:42.471Z,1.83
2018-02-12T08:17:42.578Z,1.85
2018-02-12T08:18:42.582Z,1.89
2018-02-12T08:19:42.634Z,1.77
2018-02-12T08:20:42.688Z,1.85
2018-02-12T08:21:42.743Z,1.89
2018-02-12T08:22:42.796Z,1.83
2018-02-12T08:23:42.850Z,1.82
2018-02-12T08:24:43.528Z,1.79
2018-02-12T08:25:42.959Z,1.85
2018-02-12T08:26:43.013Z,1.81
2018-02-12T08:27:43.066Z,1.85
2018-02-12T08:28:43.120Z,1.85
2018-02-12T08:29:43.174Z,1.89
2018-02-12T08:30:43.228Z,1.88
2018-02-12T08:31:43.281Z,1.92
2018-02-12T08:32:43.336Z,1.82
2018-02-12T08:33:43.390Z,1.81
2018-02-12T08:34:43.444Z,1.88
2018-02-12T08:35:43.496Z,2.01
2018-02-12T08:36:43.550Z,2.14
2018-02-12T08:37:43.604Z,2.22
2018-02-12T08:38:43.657Z,2.37
2018-02-12T08:39:43.712Z,2.38
2018-02-12T08:40:43.766Z,2.36
2018-02-12T08:41:43.820Z,2.36
2018-02-12T08:42:43.873Z,2.37
2018-02-12T08:43:43.927Z,2.40
2018-02-12T08:44:43.981Z,2.41
2018-02-12T08:45:44.035Z,2.25
2018-02-12T08:46:44.089Z,2.11
2018-02-12T08:47:44.142Z,2.33
2018-02-12T08:48:44.197Z,2.33
2018-02-12T08:49:44.251Z,2.36
2018-02-12T08:50:44.306Z,2.56
2018-02-12T08:51:44.358Z,2.55
2018-02-12T08:52:44.414Z,2.61
2018-02-12T08:53:44.467Z,2.62
2018-02-12T08:54:44.521Z,2.56
2018-02-12T08:55:44.576Z,2.66
2018-02-12T08:56:44.632Z,2.69
2018-02-12T08:57:44.686Z,2.74
2018-02-12T08:58:44.739Z,2.80
2018-02-12T08:59:44.794Z,2.71
2018-02-12T09:00:44.852Z,2.77
2018-02-12T09:01:44.907Z,2.76
2018-02-12T09:02:44.960Z,2.81
2018-02-12T09:03:45.014Z,2.86
2018-02-12T09:04:45.069Z,2.90
2018-02-12T09:05:45.124Z,2.89
2018-02-12T09:06:45.179Z,2.87
2018-02-12T09:07:45.232Z,2.80
2018-02-12T09:08:45.289Z,2.84
2018-02-12T09:09:45.344Z,2.77
2018-02-12T09:10:45.398Z,2.86
2018-02-12T09:11:45.452Z,2.74
2018-02-12T09:12:45.509Z,2.87
2018-02-12T09:13:45.563Z,2.83
2018-02-12T09:14:45.623Z,2.77
2018-02-12T09:15:45.673Z,2.69
2018-02-12T09:16:45.729Z,2.69
2018-02-12T09:17:45.784Z,2.73
2018-02-12T09:18:45.838Z,2.65
2018-02-12T09:19:45.892Z,2.74
2018-02-12T09:20:45.961Z,2.56
2018-02-12T09:21:46.005Z,2.50
2018-02-12T09:22:46.059Z,2.55
2018-02-12T09:23:46.113Z,2.61
2018-02-12T09:24:46.320Z,2.62
2018-02-12T09:25:46.224Z,2.68
2018-02-12T09:26:46.279Z,2.69
2018-02-12T09:27:46.333Z,2.73
2018-02-12T09:28:46.388Z,2.73
2018-02-12T09:29:46.445Z,2.79
2018-02-12T09:30:46.498Z,2.84
2018-02-12T09:31:46.554Z,2.81
2018-02-12T09:32:46.610Z,2.81
2018-02-12T09:33:46.663Z,2.86
2018-02-12T09:34:46.719Z,2.68
2018-02-12T09:35:46.774Z,2.77
2018-02-12T09:36:46.829Z,2.73
2018-02-12T09:37:46.883Z,2.74
2018-02-12T09:38:46.939Z,2.84
2018-02-12T09:39:46.992Z,2.76
2018-02-12T09:40:47.047Z,2.73
2018-02-12T09:41:47.102Z,2.74
2018-02-12T09:42:47.158Z,2.76
2018-02-12T09:43:47.211Z,2.66
2018-02-12T09:44:47.268Z,2.74
2018-02-12T09:45:47.322Z,2.71
2018-02-12T09:46:47.377Z,2.73
2018-02-12T09:47:47.432Z,2.79
2018-02-12T09:48:47.485Z,2.89
2018-02-12T09:49:47.541Z,2.98
2018-02-12T09:50:47.596Z,3.15
2018-02-12T09:51:47.649Z,3.17
2018-02-12T09:52:47.705Z,3.20
2018-02-12T09:53:47.765Z,3.39
2018-02-12T09:54:47.816Z,3.45
2018-02-12T09:55:47.871Z,3.60
2018-02-12T09:56:47.927Z,3.49
2018-02-12T09:57:47.982Z,3.64
2018-02-12T09:58:48.045Z,3.62
2018-02-12T09:59:48.092Z,3.50
2018-02-12T10:00:48.162Z,3.70
2018-02-12T10:01:48.205Z,3.72
2018-02-12T10:02:48.262Z,3.74
2018-02-12T10:03:48.315Z,3.77
2018-02-12T10:04:48.373Z,3.75
2018-02-12T10:05:48.429Z,3.75
2018-02-12T10:06:48.486Z,3.72
2018-02-12T10:07:48.545Z,3.75
2018-02-12T10:08:48.597Z,3.71
2018-02-12T10:09:49.222Z,3.70
2018-02-12T10:10:48.711Z,3.80
2018-02-12T10:11:48.799Z,3.75
2018-02-12T10:12:48.825Z,3.68
2018-02-12T10:13:48.881Z,3.77
2018-02-12T10:14:49.725Z,3.71
2018-02-12T10:15:48.991Z,3.71
2018-02-12T10:16:49.050Z,3.70
2018-02-12T10:17:49.104Z,3.72
2018-02-12T10:18:49.159Z,3.68
2018-02-12T10:19:49.215Z,3.67
2018-02-12T10:20:49.271Z,3.71
2018-02-12T10:21:49.328Z,3.68
2018-02-12T10:22:49.384Z,3.70
2018-02-12T10:23:50.044Z,3.68
2018-02-12T10:24:49.497Z,3.70
2018-02-12T10:25:49.553Z,3.71
2018-02-12T10:26:49.610Z,3.72
2018-02-12T10:27:49.665Z,3.92
2018-02-12T10:28:49.721Z,3.98
2018-02-12T10:29:49.777Z,3.96
2018-02-12T10:30:49.832Z,3.98
2018-02-12T10:31:49.888Z,4.18
2018-02-12T10:32:49.945Z,4.13
2018-02-12T10:33:50.000Z,4.13
2018-02-12T10:34:50.058Z,4.16
2018-02-12T10:35:50.113Z,4.38
2018-02-12T10:36:50.170Z,4.44
2018-02-12T10:37:50.226Z,4.53
2018-02-12T10:38:50.282Z,4.47
2018-02-12T10:39:50.336Z,4.44
2018-02-12T10:40:50.393Z,4.36
2018-02-12T10:41:50.456Z,4.38
2018-02-12T10:42:50.507Z,4.43
2018-02-12T10:43:50.562Z,4.43
2018-02-12T10:44:50.620Z,4.39
2018-02-12T10:45:50.677Z,4.42
2018-02-12T10:46:50.733Z,4.38
2018-02-12T10:47:50.790Z,4.18
2018-02-12T10:48:51.096Z,4.26
2018-02-12T10:49:50.902Z,4.26
2018-02-12T10:50:50.959Z,4.32
2018-02-12T10:51:51.017Z,4.29
2018-02-12T10:52:51.076Z,4.14
2018-02-12T10:53:51.131Z,4.21
2018-02-12T10:54:51.188Z,4.26
2018-02-12T10:55:51.244Z,4.18
2018-02-12T10:56:51.302Z,4.35
2018-02-12T10:57:51.357Z,4.31
2018-02-12T10:58:51.414Z,4.25
2018-02-12T10:59:51.471Z,4.25
2018-02-12T11:00:51.527Z,4.39
2018-02-12T11:01:51.584Z,4.44
2018-02-12T11:02:51.643Z,4.42
2018-02-12T11:03:51.697Z,4.35
2018-02-12T11:04:51.755Z,4.34
2018-02-12T11:05:51.813Z,4.25
2018-02-12T11:06:51.868Z,4.35
2018-02-12T11:07:51.925Z,4.25
2018-02-12T11:08:51.984Z,4.24
2018-02-12T11:09:52.039Z,4.35
2018-02-12T11:10:52.098Z,4.43
2018-02-12T11:11:52.153Z,4.43
2018-02-12T11:12:52.212Z,4.68
2018-02-12T11:13:52.268Z,4.75
2018-02-12T11:14:52.325Z,4.83
2018-02-12T11:15:52.381Z,4.93
2018-02-12T11:16:52.440Z,4.88
2018-02-12T11:17:52.497Z,4.77
2018-02-12T11:18:52.553Z,4.91
2018-02-12T11:19:52.610Z,4.96
2018-02-12T11:20:52.667Z,4.90
2018-02-12T11:21:52.727Z,5.08
2018-02-12T11:22:52.783Z,5.19
2018-02-12T11:23:52.840Z,5.12
2018-02-12T11:24:52.897Z,4.96
2018-02-12T11:25:52.955Z,4.90
2018-02-12T11:26:53.014Z,4.83
2018-02-12T11:27:53.091Z,4.86
2018-02-12T11:28:53.379Z,4.93
2018-02-12T11:29:53.186Z,5.04
2018-02-12T11:30:53.243Z,5.08
2018-02-12T11:31:53.300Z,5.14
2018-02-12T11:32:53.357Z,5.05
2018-02-12T11:33:53.418Z,5.05
2018-02-12T11:34:53.473Z,5.22
2018-02-12T11:35:53.532Z,5.38
2018-02-12T11:36:53.586Z,5.48
2018-02-12T11:37:53.645Z,5.47
2018-02-12T11:38:53.702Z,5.58
2018-02-12T11:39:53.758Z,5.58
2018-02-12T11:40:53.820Z,5.74
2018-02-12T11:41:53.875Z,5.78
2018-02-12T11:42:53.933Z,6.02
2018-02-12T11:43:53.989Z,6.32
2018-02-12T11:44:54.047Z,6.57
2018-02-12T11:45:54.106Z,7.08
2018-02-12T11:46:54.164Z,7.55
2018-02-12T11:47:54.226Z,8.21
2018-02-12T11:48:54.281Z,8.88
2018-02-12T11:49:54.340Z,7.30
2018-02-12T11:50:54.400Z,6.27
2018-02-12T11:51:54.659Z,6.55
2018-02-12T11:52:54.522Z,8.28
2018-02-12T11:53:54.579Z,8.07
2018-02-12T11:54:54.638Z,8.17
2018-02-12T11:55:54.702Z,8.85
2018-02-12T11:56:54.758Z,9.50
2018-02-12T11:57:54.822Z,9.50
2018-02-12T11:58:54.876Z,9.10
2018-02-12T11:59:54.935Z,8.40
2018-02-12T12:00:54.997Z,7.24
2018-02-12T12:01:55.055Z,8.50
2018-02-12T12:02:55.116Z,8.63
2018-02-12T12:03:55.206Z,8.42
2018-02-12T12:04:55.238Z,8.64
2018-02-12T12:05:55.296Z,8.22
2018-02-12T12:06:55.356Z,8.04
2018-02-12T12:07:55.415Z,8.40
2018-02-12T12:08:55.477Z,8.93
2018-02-12T12:09:55.536Z,9.17
2018-02-12T12:10:55.597Z,9.30
2018-02-12T12:11:55.655Z,10.13
2018-02-12T12:12:55.722Z,7.95
2018-02-12T12:13:55.777Z,8.54
2018-02-12T12:14:56.036Z,8.70
2018-02-12T12:15:55.953Z,8.49
2018-02-12T12:16:55.955Z,9.32
2018-02-12T12:17:56.017Z,8.12
2018-02-12T12:18:56.076Z,8.89
2018-02-12T12:19:56.135Z,9.98
2018-02-12T12:20:56.200Z,9.50
2018-02-12T12:21:56.256Z,9.35
2018-02-12T12:22:56.317Z,10.25
2018-02-12T12:23:56.376Z,10.18
2018-02-12T12:24:56.436Z,10.06
2018-02-12T12:25:56.496Z,9.20
2018-02-12T12:26:56.558Z,9.85
2018-02-12T12:27:56.616Z,9.55
2018-02-12T12:28:56.677Z,9.68
2018-02-12T12:29:56.738Z,9.48
2018-02-12T12:30:56.797Z,9.10
2018-02-12T12:31:56.869Z,10.11
2018-02-12T12:32:56.941Z,10.51
2018-02-12T12:33:56.979Z,10.87
2018-02-12T12:34:57.041Z,9.38
2018-02-12T12:35:57.100Z,9.06
2018-02-12T12:36:57.161Z,8.65
2018-02-12T12:37:57.223Z,7.81
2018-02-12T12:38:57.284Z,8.27
2018-02-12T12:39:57.343Z,7.62
2018-02-12T12:40:57.406Z,7.70
2018-02-12T12:41:57.465Z,7.82
2018-02-12T12:42:57.526Z,6.58
2018-02-12T12:43:57.586Z,6.46
2018-02-12T12:44:57.648Z,7.14
2018-02-12T12:45:57.715Z,8.20
2018-02-12T12:46:57.770Z,8.91
2018-02-12T12:47:57.829Z,7.77
2018-02-12T12:48:57.888Z,6.90
2018-02-12T12:49:57.950Z,7.94
2018-02-12T12:50:58.033Z,8.76
2018-02-12T12:51:58.068Z,8.52
2018-02-12T12:52:58.128Z,8.09
2018-02-12T12:53:58.188Z,7.66
2018-02-12T12:54:58.254Z,6.38
2018-02-12T12:55:58.309Z,6.21
2018-02-12T12:56:58.369Z,6.58
2018-02-12T12:57:58.428Z,7.82
2018-02-12T12:58:58.490Z,6.90
2018-02-12T12:59:58.548Z,6.87
2018-02-12T13:00:58.608Z,6.43
2018-02-12T13:01:58.669Z,6.20
2018-02-12T13:02:58.728Z,6.13
2018-02-12T13:03:58.785Z,6.16
2018-02-12T13:04:58.845Z,6.10
2018-02-12T13:05:58.905Z,5.90
2018-02-12T13:06:58.966Z,5.85
2018-02-12T13:07:59.024Z,5.63
2018-02-12T13:08:59.084Z,5.56
2018-02-12T13:09:59.142Z,5.37
2018-02-12T13:10:59.202Z,5.41
2018-02-12T13:11:59.260Z,5.41
2018-02-12T13:12:59.323Z,5.56
2018-02-12T13:13:59.379Z,5.80
2018-02-12T13:14:59.439Z,6.03
2018-02-12T13:15:59.496Z,7.85
2018-02-12T13:16:59.556Z,7.48
2018-02-12T13:17:59.613Z,6.43
2018-02-12T13:18:59.672Z,5.69